In Rescue
 
Open Full Screen Window  High Contrast Mode
November 19, 2019 11:57 AM CST
Present Weather: Fog
Weather Information
Wind Direction
  ---
Wind Speed
  00 kt (0 mph)
Wind Gust
  00 kt (0 mph)
Altimeter
29.79 in
Visibility
Less than 1/4 SM
Temperature
02° C
36° F
Dewpoint
02° C
36° F
Humidity
100%
1hr Rain Fall
00.00 in.
24hr Rain Fall
00.07 in.
Sky Condition
Overcast @ 200 ft
LIFR

METAR K21D 191757Z AUTO 00000KT M1/4SM FG OVC002 02/02 A2979 RMK AO2

FAA Disclaimer: The data displayed is for advisory purposes only and is not to be used for flight planning or operations.